Airfield :
LOGIN :

Register | Disclaimer

   EN    FR    IT 

 










Legend :    VFR   Marginal VFR   IFR   Intensive IFR   Very Intensive IFR
Visi :
Ceiling :
>= 8 km
>= 3000ft
5 to 8 km
1000 to 3000 ft
1500m to 5 km
500 to 1000 ft
800 to 1500m
200 to 500 ft
< 800m
< 200 ft
Symbols :   Thunderstorms  Fog  Heavy snow  Heavy precipitations  Wind > 20 kt
SIGMETs :     Misc.  Thunderstorms  Icing  Turbulence  Mountain Waves  Volcanic Ashes







- Airport Elevation : 25 ft
- IATA code : QCY


EGXC - RAF Coningsby

CURRENT METAR :
  • 181550Z 02005KT 9999 -SHRA FEW022TCU SCT035 BKN045 07/05 Q1020 BLU NOSIG

EXPIRED METARs :
  • 181530Z 31010KT 6000 SHRA SCT022TCU BKN045 08/04 Q1020 WHT BECMG 9999 NSW FEW022TCU BLU
  • 181450Z 25012KT 9999 VCSH FEW030TCU BKN060 10/04 Q1019 BLU NOSIG
  • 181350Z 26012KT 9999 VCSH SCT030TCU BKN060 10/03 Q1019 BLU TEMPO 7000 SHRA WHT

TAF TAF EGXC
Valid from the 18 at 15:00 until the 19 at 09:00 UTC


181349Z 1815/1909 27008KT 9999 SCT030
PROB40
TEMPO 1815/1817 5000 SHRA SCT022TCU
PROB30
TEMPO 1817/1903 SCT020
PROB30 1903/1909 5000 BR SCT007
No reported NOTAMs for that airfield.



MET'MAP, your aeronautical weather chart ! - Copyright ORBIFLY December 2007 - Disclaimer

ORBIFLY MET'MAP TEAM :

Programming & Development : Alexandra Zaïnal
Concept & Development : Baudouin d'Aumeries
Co-Development & Prog : Marc-Olivier Méhu
Technical & hardware support : Manuel Goepfert

Contact : metmap@orbifly.com




SOURCES & CREDITS :

   NOAA